createdAt,value
2022-10-01T00:01:14.972Z,1.15
2022-10-01T00:03:42.928Z,1.20
2022-10-01T00:06:14.722Z,1.13
2022-10-01T00:08:43.021Z,1.02
2022-10-01T00:11:14.632Z,1.15
2022-10-01T00:13:45.901Z,1.25
2022-10-01T00:16:14.672Z,0.80
2022-10-01T00:18:43.137Z,0.90
2022-10-01T00:21:11.510Z,0.80
2022-10-01T00:23:39.170Z,1.10
2022-10-01T00:26:11.339Z,0.97
2022-10-01T00:28:38.661Z,0.77
2022-10-01T00:31:07.239Z,0.65
2022-10-01T00:33:34.945Z,0.60
2022-10-01T00:36:02.436Z,1.02
2022-10-01T00:38:29.811Z,0.70
2022-10-01T00:40:57.284Z,0.55
2022-10-01T00:43:25.829Z,0.50
2022-10-01T00:48:23.402Z,0.70
2022-10-01T00:50:51.766Z,0.90
2022-10-01T00:53:20.210Z,0.68
2022-10-01T00:55:52.054Z,0.50
2022-10-01T00:58:20.475Z,0.70
2022-10-01T01:00:48.445Z,0.77
2022-10-01T01:03:16.389Z,0.93
2022-10-01T01:05:44.216Z,0.65
2022-10-01T01:08:11.639Z,0.80
2022-10-01T01:10:42.070Z,0.50
2022-10-01T01:13:12.916Z,0.63
2022-10-01T01:15:40.262Z,0.50
2022-10-01T01:18:10.909Z,0.60
2022-10-01T01:20:56.782Z,0.85
2022-10-01T01:23:37.445Z,0.90
2022-10-01T01:26:14.160Z,0.80
2022-10-01T01:28:44.721Z,0.90
2022-10-01T01:31:14.582Z,0.95
2022-10-01T01:33:43.722Z,0.70
2022-10-01T01:36:16.831Z,0.80
2022-10-01T01:38:47.539Z,0.60
2022-10-01T01:41:15.633Z,0.90
2022-10-01T01:43:45.614Z,0.90
2022-10-01T01:46:14.047Z,0.98
2022-10-01T01:48:44.369Z,0.80
2022-10-01T01:51:15.420Z,0.80
2022-10-01T01:53:42.961Z,1.13
2022-10-01T01:56:10.801Z,0.75
2022-10-01T01:58:39.259Z,1.10
2022-10-01T02:01:06.723Z,1.08
2022-10-01T02:03:34.648Z,1.10
2022-10-01T02:06:11.112Z,0.88
2022-10-01T02:08:58.708Z,1.00
2022-10-01T02:11:30.496Z,1.00
2022-10-01T02:14:04.691Z,1.10
2022-10-01T02:17:01.609Z,0.85
2022-10-01T02:19:33.823Z,1.13
2022-10-01T02:22:03.071Z,0.90
2022-10-01T02:24:42.659Z,1.15
2022-10-01T02:27:40.787Z,0.82
2022-10-01T02:30:09.276Z,0.70
2022-10-01T02:32:39.406Z,0.90
2022-10-01T02:35:07.968Z,0.88
2022-10-01T02:40:03.562Z,1.00
2022-10-01T02:42:31.961Z,1.98
2022-10-01T02:45:02.498Z,1.08
2022-10-01T02:47:45.777Z,1.05
2022-10-01T02:50:14.154Z,1.00
2022-10-01T02:52:43.434Z,1.08
2022-10-01T02:55:10.805Z,1.02
2022-10-01T02:57:38.376Z,1.17
2022-10-01T03:00:08.743Z,1.15
2022-10-01T03:02:37.850Z,0.90
2022-10-01T03:05:05.965Z,1.10
2022-10-01T03:07:37.183Z,1.00
2022-10-01T03:10:05.409Z,1.30
2022-10-01T03:12:33.146Z,1.27
2022-10-01T03:15:00.775Z,1.17
2022-10-01T03:17:28.564Z,1.30
2022-10-01T03:19:55.962Z,1.13
2022-10-01T03:22:23.705Z,0.93
2022-10-01T03:24:54.430Z,1.13
2022-10-01T03:27:22.043Z,1.48
2022-10-01T03:29:49.442Z,1.30
2022-10-01T03:32:17.360Z,1.60
2022-10-01T03:34:44.628Z,1.35
2022-10-01T03:37:12.137Z,0.90
2022-10-01T03:39:40.918Z,1.10
2022-10-01T03:42:08.286Z,1.23
2022-10-01T03:44:35.660Z,1.60
2022-10-01T03:47:12.528Z,1.23
2022-10-01T03:49:39.994Z,1.02
2022-10-01T03:52:07.503Z,1.20
2022-10-01T03:54:34.914Z,1.13
2022-10-01T03:57:03.068Z,1.48
2022-10-01T03:59:30.342Z,1.38
2022-10-01T04:01:57.722Z,1.42
2022-10-01T04:04:25.299Z,1.23
2022-10-01T04:06:52.669Z,0.90
2022-10-01T04:09:20.029Z,1.00
2022-10-01T04:11:47.334Z,1.13
2022-10-01T04:14:14.644Z,1.20
2022-10-01T04:16:42.309Z,1.45
2022-10-01T04:19:09.635Z,1.00
2022-10-01T04:21:38.158Z,0.90
2022-10-01T04:24:05.727Z,0.80
2022-10-01T04:26:33.053Z,1.05
2022-10-01T04:29:00.392Z,1.10
2022-10-01T04:31:27.971Z,1.10
2022-10-01T04:33:56.441Z,0.93
2022-10-01T04:36:24.334Z,1.00
2022-10-01T04:38:59.393Z,1.10
2022-10-01T04:41:32.025Z,0.90
2022-10-01T04:44:00.424Z,1.10
2022-10-01T04:46:29.744Z,0.77
2022-10-01T04:48:57.256Z,0.90
2022-10-01T04:51:24.773Z,0.73
2022-10-01T04:53:52.139Z,0.90
2022-10-01T04:56:19.473Z,0.80
2022-10-01T04:58:48.237Z,0.88
2022-10-01T05:01:15.583Z,1.23
2022-10-01T05:03:42.963Z,1.17
2022-10-01T05:06:10.293Z,1.30
2022-10-01T05:08:38.272Z,0.95
2022-10-01T05:11:05.728Z,0.90
2022-10-01T05:13:33.064Z,0.80
2022-10-01T05:16:01.198Z,1.05
2022-10-01T05:18:28.591Z,0.88
2022-10-01T05:20:55.897Z,0.77
2022-10-01T05:23:23.188Z,0.80
2022-10-01T05:25:50.623Z,0.90
2022-10-01T05:28:22.355Z,0.70
2022-10-01T05:30:51.140Z,0.70
2022-10-01T05:33:18.841Z,0.70
2022-10-01T05:35:46.198Z,0.70
2022-10-01T05:38:13.490Z,0.80
2022-10-01T05:40:40.882Z,0.82
2022-10-01T05:43:08.174Z,0.77
2022-10-01T05:45:36.880Z,0.90
2022-10-01T05:48:05.580Z,0.98
2022-10-01T05:50:33.969Z,1.30
2022-10-01T05:53:02.069Z,1.25
2022-10-01T05:55:34.864Z,1.35
2022-10-01T05:58:10.531Z,1.00
2022-10-01T06:00:38.813Z,1.15
2022-10-01T06:03:06.720Z,0.90
2022-10-01T06:05:35.363Z,0.95
2022-10-01T06:08:05.319Z,1.25
2022-10-01T06:10:32.803Z,1.08
2022-10-01T06:13:05.569Z,1.05
2022-10-01T06:15:34.463Z,1.00
2022-10-01T06:18:05.109Z,1.17
2022-10-01T06:20:32.536Z,1.00
2022-10-01T06:23:00.382Z,1.10
2022-10-01T06:25:31.944Z,1.10
2022-10-01T06:28:00.385Z,1.15
2022-10-01T06:30:29.523Z,0.82
2022-10-01T06:33:03.674Z,1.35
2022-10-01T06:35:34.992Z,0.77
2022-10-01T06:38:02.713Z,1.10
2022-10-01T06:40:31.141Z,0.73
2022-10-01T06:42:58.824Z,0.82
2022-10-01T06:45:26.829Z,1.00
2022-10-01T06:47:57.217Z,1.10
2022-10-01T06:50:26.043Z,0.70
2022-10-01T06:52:54.242Z,1.05
2022-10-01T06:55:23.051Z,1.00
2022-10-01T06:57:54.927Z,0.77
2022-10-01T07:00:23.818Z,0.90
2022-10-01T07:02:51.449Z,0.90
2022-10-01T07:05:19.232Z,1.17
2022-10-01T07:07:47.910Z,1.15
2022-10-01T07:10:16.033Z,1.42
2022-10-01T07:12:43.382Z,1.25
2022-10-01T07:15:10.774Z,1.30
2022-10-01T07:17:44.012Z,1.10
2022-10-01T07:20:11.599Z,1.02
2022-10-01T07:22:39.208Z,1.20
2022-10-01T07:25:07.311Z,1.30
2022-10-01T07:27:35.030Z,1.25
2022-10-01T07:30:03.015Z,1.42
2022-10-01T07:32:32.364Z,1.30
2022-10-01T07:35:02.059Z,1.10
2022-10-01T07:37:30.009Z,1.05
2022-10-01T07:39:57.434Z,1.10
2022-10-01T07:42:24.800Z,1.40
2022-10-01T07:44:52.168Z,1.27
2022-10-01T07:47:19.630Z,1.10
2022-10-01T07:49:46.995Z,1.08
2022-10-01T07:52:14.325Z,1.10
2022-10-01T07:54:41.742Z,1.20
2022-10-01T07:57:09.036Z,1.45
2022-10-01T07:59:36.438Z,1.27
2022-10-01T08:02:04.493Z,1.30
2022-10-01T08:04:50.476Z,1.30
2022-10-01T08:07:17.939Z,0.90
2022-10-01T08:09:45.324Z,1.10
2022-10-01T08:12:13.091Z,1.10
2022-10-01T08:14:40.412Z,0.90
2022-10-01T08:17:08.002Z,1.13
2022-10-01T08:19:36.705Z,1.00
2022-10-01T08:22:04.164Z,0.95
2022-10-01T08:24:31.576Z,1.10
2022-10-01T08:26:59.209Z,1.15
2022-10-01T08:29:26.548Z,1.02
2022-10-01T08:31:54.094Z,0.95
2022-10-01T08:34:21.440Z,1.10
2022-10-01T08:36:51.789Z,0.95
2022-10-01T08:39:20.546Z,0.80
2022-10-01T08:42:15.098Z,0.90
2022-10-01T08:44:45.698Z,1.48
2022-10-01T08:47:34.003Z,1.00
2022-10-01T08:52:34.567Z,1.65
2022-10-01T08:55:10.930Z,1.38
2022-10-01T08:57:43.725Z,1.02
2022-10-01T09:00:17.294Z,1.08
2022-10-01T09:02:49.131Z,0.98
2022-10-01T09:06:06.421Z,0.95
2022-10-01T09:08:44.813Z,1.10
2022-10-01T09:11:26.613Z,1.33
2022-10-01T09:14:03.386Z,1.23
2022-10-01T09:16:48.999Z,0.80
2022-10-01T09:19:23.481Z,1.20
2022-10-01T09:22:02.667Z,0.88
2022-10-01T09:24:50.477Z,0.80
2022-10-01T09:27:28.262Z,1.00
2022-10-01T09:30:01.133Z,1.48
2022-10-01T09:32:34.532Z,1.70
2022-10-01T09:35:29.149Z,1.48
2022-10-01T09:38:11.611Z,1.02
2022-10-01T09:40:49.783Z,1.25
2022-10-01T09:43:20.481Z,1.38
2022-10-01T09:45:47.866Z,1.33
2022-10-01T09:48:33.638Z,1.42
2022-10-01T09:51:23.772Z,1.45
2022-10-01T09:54:28.444Z,1.10
2022-10-01T09:57:01.606Z,1.25
2022-10-01T09:59:40.412Z,1.50
2022-10-01T10:02:19.950Z,1.67
2022-10-01T10:04:47.293Z,1.23
2022-10-01T10:07:19.083Z,1.30
2022-10-01T10:09:46.334Z,1.90
2022-10-01T10:12:31.384Z,1.40
2022-10-01T10:15:08.693Z,1.40
2022-10-01T10:17:38.090Z,1.30
2022-10-01T10:20:21.148Z,1.42
2022-10-01T10:22:48.296Z,1.10
2022-10-01T10:25:23.595Z,1.52
2022-10-01T10:27:55.426Z,1.45
2022-10-01T10:30:24.916Z,1.27
2022-10-01T10:33:02.467Z,1.42
2022-10-01T10:35:31.835Z,1.40
2022-10-01T10:37:59.330Z,1.42
2022-10-01T10:40:31.441Z,1.30
2022-10-01T10:42:59.735Z,1.10
2022-10-01T10:45:37.355Z,1.40
2022-10-01T10:48:11.777Z,1.17
2022-10-01T10:50:41.084Z,1.50
2022-10-01T10:53:28.617Z,1.30
2022-10-01T10:56:02.676Z,1.65
2022-10-01T10:58:32.383Z,1.45
2022-10-01T11:01:10.125Z,1.25
2022-10-01T11:03:42.057Z,1.40
2022-10-01T11:06:14.883Z,1.45
2022-10-01T11:08:42.937Z,0.90
2022-10-01T11:11:48.568Z,1.30
2022-10-01T11:14:40.081Z,1.63
2022-10-01T11:17:37.066Z,1.30
2022-10-01T11:20:35.943Z,1.20
2022-10-01T11:23:41.972Z,1.67
2022-10-01T11:26:28.250Z,1.17
2022-10-01T11:29:25.883Z,1.35
2022-10-01T11:32:23.425Z,1.85
2022-10-01T11:35:09.051Z,1.63
2022-10-01T11:38:00.588Z,1.60
2022-10-01T11:40:43.174Z,1.00
2022-10-01T11:43:31.720Z,1.27
2022-10-01T11:46:09.784Z,1.00
2022-10-01T11:48:46.121Z,1.30
2022-10-01T11:51:21.624Z,1.08
2022-10-01T11:53:56.360Z,1.38
2022-10-01T11:56:51.325Z,0.90
2022-10-01T11:59:22.697Z,0.93
2022-10-01T12:02:03.089Z,0.80
2022-10-01T12:04:34.524Z,1.20
2022-10-01T12:07:15.340Z,1.50
2022-10-01T12:10:19.003Z,1.30
2022-10-01T12:13:10.816Z,1.00
2022-10-01T12:15:47.336Z,1.10
2022-10-01T12:18:47.479Z,1.20
2022-10-01T12:21:39.576Z,0.88
2022-10-01T12:24:16.081Z,1.27
2022-10-01T12:27:11.664Z,0.70
2022-10-01T12:29:52.531Z,1.00
2022-10-01T12:32:54.701Z,0.90
2022-10-01T12:35:49.777Z,0.90
2022-10-01T12:38:19.695Z,1.02
2022-10-01T12:40:51.511Z,0.52
2022-10-01T12:43:48.929Z,0.90
2022-10-01T12:46:44.170Z,0.70
2022-10-01T12:49:28.806Z,0.85
2022-10-01T12:52:08.135Z,1.05
2022-10-01T12:55:01.002Z,0.90
2022-10-01T12:57:55.572Z,1.13
2022-10-01T13:00:25.272Z,0.80
2022-10-01T13:03:24.371Z,0.80
2022-10-01T13:06:04.761Z,1.00
2022-10-01T13:09:09.227Z,0.98
2022-10-01T13:11:51.072Z,1.00
2022-10-01T13:14:19.126Z,0.75
2022-10-01T13:16:55.492Z,0.95
2022-10-01T13:19:34.446Z,0.80
2022-10-01T13:22:33.465Z,0.98
2022-10-01T13:25:21.416Z,0.85
2022-10-01T13:28:22.781Z,0.68
2022-10-01T13:31:14.884Z,1.13
2022-10-01T13:33:53.156Z,0.90
2022-10-01T13:36:34.130Z,1.02
2022-10-01T13:39:01.737Z,1.05
2022-10-01T13:41:31.784Z,1.30
2022-10-01T13:44:28.233Z,0.85
2022-10-01T13:47:07.393Z,1.13
2022-10-01T13:49:36.623Z,1.20
2022-10-01T13:52:06.043Z,0.90
2022-10-01T13:54:51.557Z,0.80
2022-10-01T13:57:29.887Z,1.20
2022-10-01T14:02:38.610Z,1.13
2022-10-01T14:05:17.653Z,1.00
2022-10-01T14:07:47.805Z,0.90
2022-10-01T14:10:16.045Z,0.73
2022-10-01T14:13:04.962Z,1.10
2022-10-01T14:16:02.038Z,1.52
2022-10-01T14:18:36.314Z,0.80
2022-10-01T14:21:12.964Z,1.30
2022-10-01T14:23:47.533Z,1.17
2022-10-01T14:26:43.295Z,1.08
2022-10-01T14:29:33.228Z,1.20
2022-10-01T14:32:12.193Z,1.13
2022-10-01T14:34:45.197Z,0.75
2022-10-01T14:37:17.333Z,1.10
2022-10-01T14:39:44.760Z,1.00
2022-10-01T14:42:17.463Z,1.00
2022-10-01T14:44:47.885Z,1.38
2022-10-01T14:47:27.831Z,1.30
2022-10-01T14:49:55.361Z,0.90
2022-10-01T14:52:24.103Z,1.13
2022-10-01T14:55:04.327Z,1.15
2022-10-01T14:57:44.002Z,1.00
2022-10-01T15:00:29.603Z,0.82
2022-10-01T15:03:15.710Z,1.10
2022-10-01T15:05:44.651Z,1.10
2022-10-01T15:08:23.229Z,1.08
2022-10-01T15:10:56.128Z,0.85
2022-10-01T15:13:36.420Z,1.00
2022-10-01T15:16:03.962Z,0.90
2022-10-01T15:18:31.980Z,0.80
2022-10-01T15:21:06.436Z,0.75
2022-10-01T15:23:40.092Z,0.80
2022-10-01T15:26:11.388Z,0.85
2022-10-01T15:28:38.358Z,0.93
2022-10-01T15:31:07.058Z,0.70
2022-10-01T15:33:40.652Z,0.80
2022-10-01T15:36:17.746Z,0.95
2022-10-01T15:38:46.574Z,0.93
2022-10-01T15:41:32.500Z,0.75
2022-10-01T15:44:03.968Z,1.00
2022-10-01T15:46:34.981Z,0.95
2022-10-01T15:49:15.274Z,0.82
2022-10-01T15:52:22.117Z,0.75
2022-10-01T15:54:59.111Z,1.08
2022-10-01T15:57:28.423Z,0.90
2022-10-01T15:59:57.854Z,0.95
2022-10-01T16:02:29.599Z,0.93
2022-10-01T16:05:06.392Z,1.00
2022-10-01T16:07:37.882Z,0.90
2022-10-01T16:10:36.429Z,0.77
2022-10-01T16:13:37.622Z,0.80
2022-10-01T16:16:10.774Z,0.80
2022-10-01T16:18:37.885Z,1.10
2022-10-01T16:21:06.394Z,0.70
2022-10-01T16:26:02.418Z,1.20
2022-10-01T16:28:33.128Z,0.95
2022-10-01T16:31:00.891Z,1.00
2022-10-01T16:33:28.008Z,0.83
2022-10-01T16:36:09.102Z,0.82
2022-10-01T16:38:36.448Z,0.90
2022-10-01T16:41:05.400Z,0.80
2022-10-01T16:43:32.715Z,0.73
2022-10-01T16:45:59.680Z,0.70
2022-10-01T16:48:28.088Z,1.02
2022-10-01T16:50:58.934Z,0.77
2022-10-01T16:53:27.469Z,0.63
2022-10-01T16:58:23.227Z,0.90
2022-10-01T17:00:50.623Z,0.75
2022-10-01T17:03:20.510Z,1.92
2022-10-01T17:05:47.921Z,1.33
2022-10-01T17:08:15.814Z,1.25
2022-10-01T17:10:56.921Z,0.98
2022-10-01T17:13:24.940Z,0.98
2022-10-01T17:15:52.434Z,1.35
2022-10-01T17:18:20.436Z,0.70
2022-10-01T17:20:47.820Z,1.20
2022-10-01T17:23:17.904Z,1.33
2022-10-01T17:25:46.369Z,1.40
2022-10-01T17:30:44.138Z,1.48
2022-10-01T17:33:13.954Z,1.42
2022-10-01T17:35:45.464Z,1.50
2022-10-01T17:38:12.820Z,1.20
2022-10-01T17:40:41.495Z,2.20
2022-10-01T17:43:11.679Z,1.70
2022-10-01T17:45:38.668Z,1.65
2022-10-01T17:48:05.614Z,1.60
2022-10-01T17:50:33.014Z,1.95
2022-10-01T17:53:00.806Z,1.58
2022-10-01T17:55:28.393Z,1.63
2022-10-01T17:57:55.313Z,1.77
2022-10-01T18:00:22.346Z,1.90
2022-10-01T18:02:49.420Z,1.30
2022-10-01T18:05:17.257Z,1.65
2022-10-01T18:07:44.233Z,1.63
2022-10-01T18:10:13.150Z,1.45
2022-10-01T18:12:40.622Z,1.50
2022-10-01T18:15:08.435Z,2.83
2022-10-01T18:17:36.703Z,1.85
2022-10-01T18:20:06.414Z,0.95
2022-10-01T18:22:34.815Z,1.00
2022-10-01T18:25:03.755Z,0.85
2022-10-01T18:27:31.140Z,0.90
2022-10-01T18:29:58.019Z,1.10
2022-10-01T18:32:27.696Z,0.70
2022-10-01T18:35:01.272Z,1.10
2022-10-01T18:37:39.024Z,1.98
2022-10-01T18:40:18.516Z,1.88
2022-10-01T18:42:51.597Z,1.50
2022-10-01T18:45:29.117Z,1.50
2022-10-01T18:48:11.459Z,1.00
2022-10-01T18:51:28.898Z,0.80
2022-10-01T18:54:26.436Z,0.82
2022-10-01T18:57:14.698Z,0.90
2022-10-01T19:00:08.325Z,1.00
2022-10-01T19:02:59.855Z,1.13
2022-10-01T19:05:35.546Z,1.30
2022-10-01T19:08:05.534Z,1.65
2022-10-01T19:10:50.022Z,1.60
2022-10-01T19:13:28.586Z,1.70
2022-10-01T19:16:14.098Z,1.70
2022-10-01T19:19:01.794Z,1.20
2022-10-01T19:22:30.425Z,1.27
2022-10-01T19:25:14.610Z,1.42
2022-10-01T19:27:57.175Z,1.42
2022-10-01T19:30:24.398Z,2.03
2022-10-01T19:33:03.288Z,2.13
2022-10-01T19:35:36.203Z,3.30
2022-10-01T19:38:24.072Z,2.60
2022-10-01T19:40:56.386Z,2.30
2022-10-01T19:43:52.812Z,2.60
2022-10-01T19:46:29.652Z,2.22
2022-10-01T19:49:10.014Z,2.50
2022-10-01T19:51:42.385Z,2.38
2022-10-01T19:54:18.012Z,2.53
2022-10-01T19:56:52.379Z,2.00
2022-10-01T19:59:20.188Z,2.15
2022-10-01T20:01:59.151Z,2.28
2022-10-01T20:04:38.450Z,2.45
2022-10-01T20:07:11.665Z,2.75
2022-10-01T20:09:47.831Z,2.45
2022-10-01T20:12:41.574Z,2.47
2022-10-01T20:15:29.852Z,2.50
2022-10-01T20:18:25.752Z,2.10
2022-10-01T20:21:15.172Z,1.90
2022-10-01T20:23:57.714Z,2.30
2022-10-01T20:26:46.246Z,1.63
2022-10-01T20:29:23.527Z,2.13
2022-10-01T20:32:18.345Z,1.60
2022-10-01T20:35:03.858Z,1.50
2022-10-01T20:37:40.173Z,1.52
2022-10-01T20:40:18.500Z,1.50
2022-10-01T20:45:28.427Z,1.50
2022-10-01T20:48:29.706Z,1.50
2022-10-01T20:51:04.651Z,1.40
2022-10-01T20:53:45.582Z,1.50
2022-10-01T20:56:26.525Z,1.33
2022-10-01T20:59:04.489Z,2.00
2022-10-01T21:01:35.955Z,1.60
2022-10-01T21:04:02.986Z,1.65
2022-10-01T21:06:38.737Z,1.50
2022-10-01T21:09:20.953Z,1.45
2022-10-01T21:11:59.227Z,1.63
2022-10-01T21:14:33.314Z,2.05
2022-10-01T21:17:05.756Z,1.50
2022-10-01T21:19:56.653Z,1.60
2022-10-01T21:22:41.424Z,1.48
2022-10-01T21:25:23.599Z,1.98
2022-10-01T21:28:11.406Z,1.75
2022-10-01T21:30:59.593Z,1.92
2022-10-01T21:33:34.335Z,2.20
2022-10-01T21:36:30.924Z,1.75
2022-10-01T21:39:30.746Z,1.80
2022-10-01T21:42:21.358Z,1.98
2022-10-01T21:45:18.774Z,1.88
2022-10-01T21:48:29.134Z,1.63
2022-10-01T21:51:02.992Z,1.50
2022-10-01T21:54:00.978Z,1.45
2022-10-01T21:56:51.030Z,1.67
2022-10-01T21:59:41.146Z,1.50
2022-10-01T22:02:40.232Z,1.50
2022-10-01T22:05:34.370Z,1.23
2022-10-01T22:08:10.144Z,1.48
2022-10-01T22:10:43.183Z,1.45
2022-10-01T22:13:34.800Z,1.30
2022-10-01T22:16:10.940Z,1.30
2022-10-01T22:18:49.595Z,1.55
2022-10-01T22:21:39.525Z,1.20
2022-10-01T22:24:17.524Z,1.30
2022-10-01T22:26:54.225Z,1.70
2022-10-01T22:29:28.216Z,1.33
2022-10-01T22:32:03.646Z,1.40
2022-10-01T22:34:38.974Z,1.20
2022-10-01T22:37:12.849Z,1.48
2022-10-01T22:39:47.608Z,1.08
2022-10-01T22:42:20.935Z,1.65
2022-10-01T22:44:51.210Z,1.23
2022-10-01T22:48:00.275Z,1.35
2022-10-01T22:50:42.833Z,1.70
2022-10-01T22:53:12.893Z,1.50
2022-10-01T22:55:48.279Z,1.20
2022-10-01T22:58:36.197Z,1.02
2022-10-01T23:01:19.571Z,1.20
2022-10-01T23:04:05.936Z,1.25
2022-10-01T23:07:00.260Z,1.40
2022-10-01T23:09:49.141Z,1.02
2022-10-01T23:12:30.815Z,1.10
2022-10-01T23:15:32.843Z,0.85
2022-10-01T23:18:23.877Z,1.20
2022-10-01T23:21:05.991Z,1.33
2022-10-01T23:23:34.546Z,1.00
2022-10-01T23:28:56.338Z,0.98
2022-10-01T23:31:49.290Z,1.23
2022-10-01T23:35:06.127Z,0.90
2022-10-01T23:37:54.449Z,1.13
2022-10-01T23:46:02.009Z,1.00
2022-10-01T23:48:56.143Z,1.00
2022-10-01T23:51:27.221Z,1.35
2022-10-01T23:54:17.611Z,1.15
2022-10-01T23:56:55.721Z,0.98
2022-10-01T23:59:33.559Z,0.85
